sensor_id;sensor_type;location;lat;lon;timestamp;temperature;humidity
20911;DHT22;10615;42.702;23.314;2023-05-07T00:00:34;12.70;97.90
20911;DHT22;10615;42.702;23.314;2023-05-07T00:01:34;12.70;98.00
20911;DHT22;10615;42.702;23.314;2023-05-07T00:02:35;12.70;98.10
20911;DHT22;10615;42.702;23.314;2023-05-07T00:03:37;12.70;98.20
20911;DHT22;10615;42.702;23.314;2023-05-07T00:04:38;12.70;98.30
20911;DHT22;10615;42.702;23.314;2023-05-07T00:05:39;12.70;98.30
20911;DHT22;10615;42.702;23.314;2023-05-07T00:06:40;12.70;98.40
20911;DHT22;10615;42.702;23.314;2023-05-07T00:07:40;12.60;98.30
20911;DHT22;10615;42.702;23.314;2023-05-07T00:08:41;12.70;98.40
20911;DHT22;10615;42.702;23.314;2023-05-07T00:09:42;12.60;98.40
20911;DHT22;10615;42.702;23.314;2023-05-07T00:10:42;12.60;98.50
20911;DHT22;10615;42.702;23.314;2023-05-07T00:11:43;12.60;98.50
20911;DHT22;10615;42.702;23.314;2023-05-07T00:12:44;12.60;98.60
20911;DHT22;10615;42.702;23.314;2023-05-07T00:13:45;12.60;98.60
20911;DHT22;10615;42.702;23.314;2023-05-07T00:14:45;12.70;98.70
20911;DHT22;10615;42.702;23.314;2023-05-07T00:15:46;12.60;98.60
20911;DHT22;10615;42.702;23.314;2023-05-07T00:16:47;12.60;98.60
20911;DHT22;10615;42.702;23.314;2023-05-07T00:17:47;12.60;98.70
20911;DHT22;10615;42.702;23.314;2023-05-07T00:18:48;12.60;98.70
20911;DHT22;10615;42.702;23.314;2023-05-07T00:19:49;12.60;98.80
20911;DHT22;10615;42.702;23.314;2023-05-07T00:20:49;12.60;98.90
20911;DHT22;10615;42.702;23.314;2023-05-07T00:21:50;12.60;99.00
20911;DHT22;10615;42.702;23.314;2023-05-07T00:22:51;12.60;99.00
20911;DHT22;10615;42.702;23.314;2023-05-07T00:23:52;12.60;99.00
20911;DHT22;10615;42.702;23.314;2023-05-07T00:24:53;12.50;98.90
20911;DHT22;10615;42.702;23.314;2023-05-07T00:25:54;12.50;98.90
20911;DHT22;10615;42.702;23.314;2023-05-07T00:26:55;12.50;99.00
20911;DHT22;10615;42.702;23.314;2023-05-07T00:27:55;12.50;99.10
20911;DHT22;10615;42.702;23.314;2023-05-07T00:28:57;12.50;99.20
20911;DHT22;10615;42.702;23.314;2023-05-07T00:29:58;12.50;99.20
20911;DHT22;10615;42.702;23.314;2023-05-07T00:30:59;12.50;99.20
20911;DHT22;10615;42.702;23.314;2023-05-07T00:31:59;12.50;99.20
20911;DHT22;10615;42.702;23.314;2023-05-07T00:33:00;12.50;99.20
20911;DHT22;10615;42.702;23.314;2023-05-07T00:34:01;12.50;99.20
20911;DHT22;10615;42.702;23.314;2023-05-07T00:35:02;12.50;99.30
20911;DHT22;10615;42.702;23.314;2023-05-07T00:36:02;12.50;99.30
20911;DHT22;10615;42.702;23.314;2023-05-07T00:37:03;12.50;99.40
20911;DHT22;10615;42.702;23.314;2023-05-07T00:38:04;12.50;99.50
20911;DHT22;10615;42.702;23.314;2023-05-07T00:39:05;12.50;99.50
20911;DHT22;10615;42.702;23.314;2023-05-07T00:40:06;12.50;99.50
20911;DHT22;10615;42.702;23.314;2023-05-07T00:41:08;12.50;99.50
20911;DHT22;10615;42.702;23.314;2023-05-07T00:42:08;12.40;99.50
20911;DHT22;10615;42.702;23.314;2023-05-07T00:43:09;12.40;99.50
20911;DHT22;10615;42.702;23.314;2023-05-07T00:44:10;12.40;99.60
20911;DHT22;10615;42.702;23.314;2023-05-07T00:45:10;12.40;99.60
20911;DHT22;10615;42.702;23.314;2023-05-07T00:46:11;12.40;99.70
20911;DHT22;10615;42.702;23.314;2023-05-07T00:47:13;12.40;99.70
20911;DHT22;10615;42.702;23.314;2023-05-07T00:48:14;12.40;99.70
20911;DHT22;10615;42.702;23.314;2023-05-07T00:49:15;12.40;99.60
20911;DHT22;10615;42.702;23.314;2023-05-07T00:50:16;12.30;99.70
20911;DHT22;10615;42.702;23.314;2023-05-07T00:51:18;12.30;99.90
20911;DHT22;10615;42.702;23.314;2023-05-07T00:52:20;12.30;99.90
20911;DHT22;10615;42.702;23.314;2023-05-07T00:53:22;12.30;99.90
20911;DHT22;10615;42.702;23.314;2023-05-07T00:54:22;12.30;99.90
20911;DHT22;10615;42.702;23.314;2023-05-07T00:55:23;12.30;99.90
20911;DHT22;10615;42.702;23.314;2023-05-07T00:56:24;12.30;99.90
20911;DHT22;10615;42.702;23.314;2023-05-07T00:57:25;12.30;99.90
20911;DHT22;10615;42.702;23.314;2023-05-07T00:58:26;12.30;99.90
20911;DHT22;10615;42.702;23.314;2023-05-07T00:59:27;12.30;99.90
20911;DHT22;10615;42.702;23.314;2023-05-07T01:00:28;12.30;99.90
20911;DHT22;10615;42.702;23.314;2023-05-07T01:01:29;12.30;99.90
20911;DHT22;10615;42.702;23.314;2023-05-07T01:02:30;12.30;99.90
20911;DHT22;10615;42.702;23.314;2023-05-07T01:03:30;12.30;99.90
20911;DHT22;10615;42.702;23.314;2023-05-07T01:04:31;12.20;99.90
20911;DHT22;10615;42.702;23.314;2023-05-07T01:05:32;12.20;99.90
20911;DHT22;10615;42.702;23.314;2023-05-07T01:06:33;12.10;99.90
20911;DHT22;10615;42.702;23.314;2023-05-07T01:07:34;12.20;99.90
20911;DHT22;10615;42.702;23.314;2023-05-07T01:08:36;12.10;99.90
20911;DHT22;10615;42.702;23.314;2023-05-07T01:09:40;12.10;99.90
20911;DHT22;10615;42.702;23.314;2023-05-07T01:10:41;12.10;99.90
20911;DHT22;10615;42.702;23.314;2023-05-07T01:11:43;12.10;99.90
20911;DHT22;10615;42.702;23.314;2023-05-07T01:12:45;12.10;99.90
20911;DHT22;10615;42.702;23.314;2023-05-07T01:13:47;12.10;99.90
20911;DHT22;10615;42.702;23.314;2023-05-07T01:14:49;12.10;99.90
20911;DHT22;10615;42.702;23.314;2023-05-07T01:15:51;12.10;99.90
20911;DHT22;10615;42.702;23.314;2023-05-07T01:16:51;12.00;99.90
20911;DHT22;10615;42.702;23.314;2023-05-07T01:17:53;12.00;99.90
20911;DHT22;10615;42.702;23.314;2023-05-07T01:18:54;12.00;99.90
20911;DHT22;10615;42.702;23.314;2023-05-07T01:19:55;12.00;99.90
20911;DHT22;10615;42.702;23.314;2023-05-07T01:20:57;12.00;99.90
20911;DHT22;10615;42.702;23.314;2023-05-07T01:22:04;12.00;99.90
20911;DHT22;10615;42.702;23.314;2023-05-07T01:23:07;12.00;99.90
20911;DHT22;10615;42.702;23.314;2023-05-07T01:24:09;12.00;99.90
20911;DHT22;10615;42.702;23.314;2023-05-07T01:25:10;12.00;99.90
20911;DHT22;10615;42.702;23.314;2023-05-07T01:26:11;12.00;99.90
20911;DHT22;10615;42.702;23.314;2023-05-07T01:27:11;12.10;99.90
20911;DHT22;10615;42.702;23.314;2023-05-07T01:28:12;12.10;99.90
20911;DHT22;10615;42.702;23.314;2023-05-07T01:29:13;12.10;99.90
20911;DHT22;10615;42.702;23.314;2023-05-07T01:30:13;12.10;99.90
20911;DHT22;10615;42.702;23.314;2023-05-07T01:31:15;12.10;99.90
20911;DHT22;10615;42.702;23.314;2023-05-07T01:32:19;12.10;99.90
20911;DHT22;10615;42.702;23.314;2023-05-07T01:33:22;12.10;99.90
20911;DHT22;10615;42.702;23.314;2023-05-07T01:34:23;12.10;99.90
20911;DHT22;10615;42.702;23.314;2023-05-07T01:35:38;12.10;99.90
20911;DHT22;10615;42.702;23.314;2023-05-07T01:36:40;12.10;99.90
20911;DHT22;10615;42.702;23.314;2023-05-07T01:37:42;12.10;99.90
20911;DHT22;10615;42.702;23.314;2023-05-07T01:38:44;12.10;99.90
20911;DHT22;10615;42.702;23.314;2023-05-07T01:39:46;12.10;99.90
20911;DHT22;10615;42.702;23.314;2023-05-07T01:40:47;12.10;99.90
20911;DHT22;10615;42.702;23.314;2023-05-07T01:41:49;12.10;99.90
20911;DHT22;10615;42.702;23.314;2023-05-07T01:42:50;12.10;99.90
20911;DHT22;10615;42.702;23.314;2023-05-07T01:43:52;12.10;99.90
20911;DHT22;10615;42.702;23.314;2023-05-07T01:44:54;12.10;99.90
20911;DHT22;10615;42.702;23.314;2023-05-07T01:45:55;12.10;99.90
20911;DHT22;10615;42.702;23.314;2023-05-07T01:46:57;12.00;99.90
20911;DHT22;10615;42.702;23.314;2023-05-07T01:47:58;12.00;99.90
20911;DHT22;10615;42.702;23.314;2023-05-07T01:48:59;12.00;99.90
20911;DHT22;10615;42.702;23.314;2023-05-07T01:50:00;12.00;99.90
20911;DHT22;10615;42.702;23.314;2023-05-07T01:51:01;12.00;99.90
20911;DHT22;10615;42.702;23.314;2023-05-07T01:52:02;11.90;99.80
20911;DHT22;10615;42.702;23.314;2023-05-07T01:53:03;11.90;99.80
20911;DHT22;10615;42.702;23.314;2023-05-07T01:54:04;11.80;99.80
20911;DHT22;10615;42.702;23.314;2023-05-07T01:55:06;11.80;99.90
20911;DHT22;10615;42.702;23.314;2023-05-07T01:56:07;11.80;99.90
20911;DHT22;10615;42.702;23.314;2023-05-07T01:57:08;11.80;99.90
20911;DHT22;10615;42.702;23.314;2023-05-07T01:58:08;11.70;99.90
20911;DHT22;10615;42.702;23.314;2023-05-07T01:59:09;11.70;99.90
20911;DHT22;10615;42.702;23.314;2023-05-07T02:00:10;11.70;99.90
20911;DHT22;10615;42.702;23.314;2023-05-07T02:01:11;11.70;99.90
20911;DHT22;10615;42.702;23.314;2023-05-07T02:02:11;11.70;99.90
20911;DHT22;10615;42.702;23.314;2023-05-07T02:03:12;11.70;99.90
20911;DHT22;10615;42.702;23.314;2023-05-07T02:04:13;11.70;99.90
20911;DHT22;10615;42.702;23.314;2023-05-07T02:05:13;11.60;99.90
20911;DHT22;10615;42.702;23.314;2023-05-07T02:06:14;11.60;99.90
20911;DHT22;10615;42.702;23.314;2023-05-07T02:07:15;11.60;99.90
20911;DHT22;10615;42.702;23.314;2023-05-07T02:08:16;11.60;99.90
20911;DHT22;10615;42.702;23.314;2023-05-07T02:09:16;11.60;99.90
20911;DHT22;10615;42.702;23.314;2023-05-07T02:10:17;11.60;99.90
20911;DHT22;10615;42.702;23.314;2023-05-07T02:11:18;11.60;99.90
20911;DHT22;10615;42.702;23.314;2023-05-07T02:12:18;11.60;99.90
20911;DHT22;10615;42.702;23.314;2023-05-07T02:13:19;11.60;99.90
20911;DHT22;10615;42.702;23.314;2023-05-07T02:14:20;11.60;99.90
20911;DHT22;10615;42.702;23.314;2023-05-07T02:15:21;11.60;99.90
20911;DHT22;10615;42.702;23.314;2023-05-07T02:16:21;11.60;99.90
20911;DHT22;10615;42.702;23.314;2023-05-07T02:17:23;11.60;99.90
20911;DHT22;10615;42.702;23.314;2023-05-07T02:18:24;11.60;99.90
20911;DHT22;10615;42.702;23.314;2023-05-07T02:19:24;11.60;99.90
20911;DHT22;10615;42.702;23.314;2023-05-07T02:20:25;11.60;99.90
20911;DHT22;10615;42.702;23.314;2023-05-07T02:21:26;11.60;99.90
20911;DHT22;10615;42.702;23.314;2023-05-07T02:22:26;11.60;99.90
20911;DHT22;10615;42.702;23.314;2023-05-07T02:23:27;11.60;99.90
20911;DHT22;10615;42.702;23.314;2023-05-07T02:24:28;11.60;99.90
20911;DHT22;10615;42.702;23.314;2023-05-07T02:25:28;11.70;99.90
20911;DHT22;10615;42.702;23.314;2023-05-07T02:26:30;11.60;99.90
20911;DHT22;10615;42.702;23.314;2023-05-07T02:27:31;11.60;99.90
20911;DHT22;10615;42.702;23.314;2023-05-07T02:28:31;11.60;99.90
20911;DHT22;10615;42.702;23.314;2023-05-07T02:29:32;11.60;99.90
20911;DHT22;10615;42.702;23.314;2023-05-07T02:30:33;11.60;99.90
20911;DHT22;10615;42.702;23.314;2023-05-07T02:31:33;11.60;99.90
20911;DHT22;10615;42.702;23.314;2023-05-07T02:32:34;11.60;99.90
20911;DHT22;10615;42.702;23.314;2023-05-07T02:33:35;11.60;99.90
20911;DHT22;10615;42.702;23.314;2023-05-07T02:34:36;11.60;99.90
20911;DHT22;10615;42.702;23.314;2023-05-07T02:35:37;11.60;99.90
20911;DHT22;10615;42.702;23.314;2023-05-07T02:36:38;11.60;99.90
20911;DHT22;10615;42.702;23.314;2023-05-07T02:37:38;11.60;99.90
20911;DHT22;10615;42.702;23.314;2023-05-07T02:38:39;11.60;99.90
20911;DHT22;10615;42.702;23.314;2023-05-07T02:39:40;11.60;99.90
20911;DHT22;10615;42.702;23.314;2023-05-07T02:40:40;11.60;99.90
20911;DHT22;10615;42.702;23.314;2023-05-07T02:41:41;11.60;99.90
20911;DHT22;10615;42.702;23.314;2023-05-07T02:42:41;11.60;99.90
20911;DHT22;10615;42.702;23.314;2023-05-07T02:43:42;11.60;99.90
20911;DHT22;10615;42.702;23.314;2023-05-07T02:44:43;11.60;99.90
20911;DHT22;10615;42.702;23.314;2023-05-07T02:45:43;11.60;99.90
20911;DHT22;10615;42.702;23.314;2023-05-07T02:46:44;11.60;99.90
20911;DHT22;10615;42.702;23.314;2023-05-07T02:47:45;11.60;99.90
20911;DHT22;10615;42.702;23.314;2023-05-07T02:48:46;11.60;99.90
20911;DHT22;10615;42.702;23.314;2023-05-07T02:49:47;11.60;99.90
20911;DHT22;10615;42.702;23.314;2023-05-07T02:50:48;11.60;99.90
20911;DHT22;10615;42.702;23.314;2023-05-07T02:51:48;11.80;99.90
20911;DHT22;10615;42.702;23.314;2023-05-07T02:52:49;11.60;99.90
20911;DHT22;10615;42.702;23.314;2023-05-07T02:53:50;11.70;99.90
20911;DHT22;10615;42.702;23.314;2023-05-07T02:54:50;11.60;99.90
20911;DHT22;10615;42.702;23.314;2023-05-07T02:55:56;11.60;99.90
20911;DHT22;10615;42.702;23.314;2023-05-07T02:56:56;11.70;99.90
20911;DHT22;10615;42.702;23.314;2023-05-07T02:57:57;11.60;99.90
20911;DHT22;10615;42.702;23.314;2023-05-07T02:58:58;11.60;99.90
20911;DHT22;10615;42.702;23.314;2023-05-07T02:59:59;11.60;99.90
20911;DHT22;10615;42.702;23.314;2023-05-07T03:00:59;11.70;99.90
20911;DHT22;10615;42.702;23.314;2023-05-07T03:02:00;11.60;99.90
20911;DHT22;10615;42.702;23.314;2023-05-07T03:03:01;11.60;99.90
20911;DHT22;10615;42.702;23.314;2023-05-07T03:04:01;11.70;99.90
20911;DHT22;10615;42.702;23.314;2023-05-07T03:05:02;11.70;99.90
20911;DHT22;10615;42.702;23.314;2023-05-07T03:06:04;11.70;99.90
20911;DHT22;10615;42.702;23.314;2023-05-07T03:07:04;11.70;99.90
20911;DHT22;10615;42.702;23.314;2023-05-07T03:08:05;11.70;99.90
20911;DHT22;10615;42.702;23.314;2023-05-07T03:09:06;11.70;99.90
20911;DHT22;10615;42.702;23.314;2023-05-07T03:10:07;11.70;99.90
20911;DHT22;10615;42.702;23.314;2023-05-07T03:11:08;11.70;99.90
20911;DHT22;10615;42.702;23.314;2023-05-07T03:12:08;11.60;99.90
20911;DHT22;10615;42.702;23.314;2023-05-07T03:13:09;11.60;99.90
20911;DHT22;10615;42.702;23.314;2023-05-07T03:14:10;11.60;99.90
20911;DHT22;10615;42.702;23.314;2023-05-07T03:15:11;11.60;99.90
20911;DHT22;10615;42.702;23.314;2023-05-07T03:16:15;11.50;99.90
20911;DHT22;10615;42.702;23.314;2023-05-07T03:17:16;11.50;99.90
20911;DHT22;10615;42.702;23.314;2023-05-07T03:18:16;11.50;99.90
20911;DHT22;10615;42.702;23.314;2023-05-07T03:19:17;11.50;99.90
20911;DHT22;10615;42.702;23.314;2023-05-07T03:20:18;11.50;99.90
20911;DHT22;10615;42.702;23.314;2023-05-07T03:21:19;11.50;99.90
20911;DHT22;10615;42.702;23.314;2023-05-07T03:22:19;11.60;99.90
20911;DHT22;10615;42.702;23.314;2023-05-07T03:23:20;11.60;99.90
20911;DHT22;10615;42.702;23.314;2023-05-07T03:24:21;11.50;99.90
20911;DHT22;10615;42.702;23.314;2023-05-07T03:25:22;11.50;99.90
20911;DHT22;10615;42.702;23.314;2023-05-07T03:26:22;11.60;99.90
20911;DHT22;10615;42.702;23.314;2023-05-07T03:27:23;11.50;99.90
20911;DHT22;10615;42.702;23.314;2023-05-07T03:28:24;11.50;99.90
20911;DHT22;10615;42.702;23.314;2023-05-07T03:29:24;11.60;99.90
20911;DHT22;10615;42.702;23.314;2023-05-07T03:30:25;11.50;99.90
20911;DHT22;10615;42.702;23.314;2023-05-07T03:31:26;11.60;99.90
20911;DHT22;10615;42.702;23.314;2023-05-07T03:32:26;11.60;99.90
20911;DHT22;10615;42.702;23.314;2023-05-07T03:33:27;11.70;99.90
20911;DHT22;10615;42.702;23.314;2023-05-07T03:34:28;11.70;99.90
20911;DHT22;10615;42.702;23.314;2023-05-07T03:35:28;11.80;99.90
20911;DHT22;10615;42.702;23.314;2023-05-07T03:36:29;11.80;99.90
20911;DHT22;10615;42.702;23.314;2023-05-07T03:37:30;12.00;99.90
20911;DHT22;10615;42.702;23.314;2023-05-07T03:38:31;12.20;99.90
20911;DHT22;10615;42.702;23.314;2023-05-07T03:39:32;12.50;99.80
20911;DHT22;10615;42.702;23.314;2023-05-07T03:40:32;12.80;99.20
20911;DHT22;10615;42.702;23.314;2023-05-07T03:41:33;13.20;98.40
20911;DHT22;10615;42.702;23.314;2023-05-07T03:42:34;13.50;97.10
20911;DHT22;10615;42.702;23.314;2023-05-07T03:43:34;13.80;95.40
20911;DHT22;10615;42.702;23.314;2023-05-07T03:44:35;14.10;94.30
20911;DHT22;10615;42.702;23.314;2023-05-07T03:45:38;14.40;92.90
20911;DHT22;10615;42.702;23.314;2023-05-07T03:46:39;14.50;91.80
20911;DHT22;10615;42.702;23.314;2023-05-07T03:47:40;14.70;90.80
20911;DHT22;10615;42.702;23.314;2023-05-07T03:48:40;14.80;90.20
20911;DHT22;10615;42.702;23.314;2023-05-07T03:49:41;14.80;89.30
20911;DHT22;10615;42.702;23.314;2023-05-07T03:50:41;14.90;88.40
20911;DHT22;10615;42.702;23.314;2023-05-07T03:51:42;14.90;87.50
20911;DHT22;10615;42.702;23.314;2023-05-07T03:52:43;15.00;86.80
20911;DHT22;10615;42.702;23.314;2023-05-07T03:53:44;15.10;86.00
20911;DHT22;10615;42.702;23.314;2023-05-07T03:54:45;15.10;84.90
20911;DHT22;10615;42.702;23.314;2023-05-07T03:56:47;15.40;83.00
20911;DHT22;10615;42.702;23.314;2023-05-07T03:59:07;15.90;81.70
20911;DHT22;10615;42.702;23.314;2023-05-07T04:00:08;16.20;80.00
20911;DHT22;10615;42.702;23.314;2023-05-07T04:01:09;16.40;79.20
20911;DHT22;10615;42.702;23.314;2023-05-07T04:02:11;16.60;77.60
20911;DHT22;10615;42.702;23.314;2023-05-07T04:03:12;16.80;76.40
20911;DHT22;10615;42.702;23.314;2023-05-07T04:04:12;17.00;74.90
20911;DHT22;10615;42.702;23.314;2023-05-07T04:05:14;17.10;73.70
20911;DHT22;10615;42.702;23.314;2023-05-07T04:06:18;17.20;73.10
20911;DHT22;10615;42.702;23.314;2023-05-07T04:07:19;17.30;73.10
20911;DHT22;10615;42.702;23.314;2023-05-07T04:08:19;17.40;72.80
20911;DHT22;10615;42.702;23.314;2023-05-07T04:09:20;17.50;72.70
20911;DHT22;10615;42.702;23.314;2023-05-07T04:10:21;17.70;71.10
20911;DHT22;10615;42.702;23.314;2023-05-07T04:11:21;17.80;70.00
20911;DHT22;10615;42.702;23.314;2023-05-07T04:12:22;17.90;69.00
20911;DHT22;10615;42.702;23.314;2023-05-07T04:13:23;18.00;69.00
20911;DHT22;10615;42.702;23.314;2023-05-07T04:14:23;18.20;68.50
20911;DHT22;10615;42.702;23.314;2023-05-07T04:15:24;18.30;67.80
20911;DHT22;10615;42.702;23.314;2023-05-07T04:16:25;18.40;67.10
20911;DHT22;10615;42.702;23.314;2023-05-07T04:17:25;18.40;66.00
20911;DHT22;10615;42.702;23.314;2023-05-07T04:18:26;18.50;66.00
20911;DHT22;10615;42.702;23.314;2023-05-07T04:19:26;18.70;66.00
20911;DHT22;10615;42.702;23.314;2023-05-07T04:20:27;18.80;65.30
20911;DHT22;10615;42.702;23.314;2023-05-07T04:21:28;18.90;65.00
20911;DHT22;10615;42.702;23.314;2023-05-07T04:22:29;19.00;64.40
20911;DHT22;10615;42.702;23.314;2023-05-07T04:23:29;19.00;63.70
20911;DHT22;10615;42.702;23.314;2023-05-07T04:24:33;19.20;63.40
20911;DHT22;10615;42.702;23.314;2023-05-07T04:25:34;19.50;63.10
20911;DHT22;10615;42.702;23.314;2023-05-07T04:26:34;19.80;62.60
20911;DHT22;10615;42.702;23.314;2023-05-07T04:27:35;20.00;61.80
20911;DHT22;10615;42.702;23.314;2023-05-07T04:28:36;20.30;61.40
20911;DHT22;10615;42.702;23.314;2023-05-07T04:29:37;20.40;60.30
20911;DHT22;10615;42.702;23.314;2023-05-07T04:30:39;20.60;59.80
20911;DHT22;10615;42.702;23.314;2023-05-07T04:31:40;20.90;59.30
20911;DHT22;10615;42.702;23.314;2023-05-07T04:32:40;21.00;59.20
20911;DHT22;10615;42.702;23.314;2023-05-07T04:33:41;21.20;57.90
20911;DHT22;10615;42.702;23.314;2023-05-07T04:34:42;21.30;57.50
20911;DHT22;10615;42.702;23.314;2023-05-07T04:35:42;21.50;57.20
20911;DHT22;10615;42.702;23.314;2023-05-07T04:36:43;21.70;56.80
20911;DHT22;10615;42.702;23.314;2023-05-07T04:37:44;21.90;56.30
20911;DHT22;10615;42.702;23.314;2023-05-07T04:38:45;22.10;55.80
20911;DHT22;10615;42.702;23.314;2023-05-07T04:39:46;22.20;55.20
20911;DHT22;10615;42.702;23.314;2023-05-07T04:40:47;22.30;54.60
20911;DHT22;10615;42.702;23.314;2023-05-07T04:41:47;22.30;54.60
20911;DHT22;10615;42.702;23.314;2023-05-07T04:42:48;22.40;54.60
20911;DHT22;10615;42.702;23.314;2023-05-07T04:43:49;22.50;54.40
20911;DHT22;10615;42.702;23.314;2023-05-07T04:44:53;22.60;54.10
20911;DHT22;10615;42.702;23.314;2023-05-07T04:45:54;22.80;53.80
20911;DHT22;10615;42.702;23.314;2023-05-07T04:46:54;23.10;53.40
20911;DHT22;10615;42.702;23.314;2023-05-07T04:47:55;23.30;52.70
20911;DHT22;10615;42.702;23.314;2023-05-07T04:48:56;23.50;52.10
20911;DHT22;10615;42.702;23.314;2023-05-07T04:49:58;23.80;51.70
20911;DHT22;10615;42.702;23.314;2023-05-07T04:50:58;24.00;51.30
20911;DHT22;10615;42.702;23.314;2023-05-07T04:51:59;24.20;50.80
20911;DHT22;10615;42.702;23.314;2023-05-07T04:53:00;24.50;50.40
20911;DHT22;10615;42.702;23.314;2023-05-07T04:54:00;24.70;49.80
20911;DHT22;10615;42.702;23.314;2023-05-07T04:55:01;24.80;49.00
20911;DHT22;10615;42.702;23.314;2023-05-07T04:56:02;25.00;49.00
20911;DHT22;10615;42.702;23.314;2023-05-07T04:57:04;25.30;48.50
20911;DHT22;10615;42.702;23.314;2023-05-07T04:58:05;25.50;47.70
20911;DHT22;10615;42.702;23.314;2023-05-07T04:59:05;25.60;47.30
20911;DHT22;10615;42.702;23.314;2023-05-07T05:00:07;25.60;47.10
20911;DHT22;10615;42.702;23.314;2023-05-07T05:01:14;25.70;46.80
20911;DHT22;10615;42.702;23.314;2023-05-07T05:02:18;25.70;46.50
20911;DHT22;10615;42.702;23.314;2023-05-07T05:03:19;25.70;46.30
20911;DHT22;10615;42.702;23.314;2023-05-07T05:04:19;25.90;46.60
20911;DHT22;10615;42.702;23.314;2023-05-07T05:05:20;26.10;46.30
20911;DHT22;10615;42.702;23.314;2023-05-07T05:06:21;26.30;46.10
20911;DHT22;10615;42.702;23.314;2023-05-07T05:07:21;26.50;45.70
20911;DHT22;10615;42.702;23.314;2023-05-07T05:08:22;26.80;45.10
20911;DHT22;10615;42.702;23.314;2023-05-07T05:09:23;26.80;44.50
20911;DHT22;10615;42.702;23.314;2023-05-07T05:10:23;26.80;44.40
20911;DHT22;10615;42.702;23.314;2023-05-07T05:11:24;27.00;44.20
20911;DHT22;10615;42.702;23.314;2023-05-07T05:12:25;27.10;43.90
20911;DHT22;10615;42.702;23.314;2023-05-07T05:13:26;27.20;43.50
20911;DHT22;10615;42.702;23.314;2023-05-07T05:14:27;27.20;43.80
20911;DHT22;10615;42.702;23.314;2023-05-07T05:15:27;27.40;43.60
20911;DHT22;10615;42.702;23.314;2023-05-07T05:16:28;27.60;43.40
20911;DHT22;10615;42.702;23.314;2023-05-07T05:17:29;27.80;43.20
20911;DHT22;10615;42.702;23.314;2023-05-07T05:18:29;28.10;43.00
20911;DHT22;10615;42.702;23.314;2023-05-07T05:19:30;28.40;42.50
20911;DHT22;10615;42.702;23.314;2023-05-07T05:20:31;28.70;42.10
20911;DHT22;10615;42.702;23.314;2023-05-07T05:21:32;29.00;41.70
20911;DHT22;10615;42.702;23.314;2023-05-07T05:22:33;29.30;41.40
20911;DHT22;10615;42.702;23.314;2023-05-07T05:23:33;29.50;40.90
20911;DHT22;10615;42.702;23.314;2023-05-07T05:24:34;29.70;40.40
20911;DHT22;10615;42.702;23.314;2023-05-07T05:25:35;29.80;40.00
20911;DHT22;10615;42.702;23.314;2023-05-07T05:26:35;30.00;39.60
20911;DHT22;10615;42.702;23.314;2023-05-07T05:27:36;30.10;39.50
20911;DHT22;10615;42.702;23.314;2023-05-07T05:28:37;30.30;39.00
20911;DHT22;10615;42.702;23.314;2023-05-07T05:30:39;30.60;37.80
20911;DHT22;10615;42.702;23.314;2023-05-07T05:31:40;30.60;38.20
20911;DHT22;10615;42.702;23.314;2023-05-07T05:32:42;30.70;38.00
20911;DHT22;10615;42.702;23.314;2023-05-07T05:33:42;30.80;37.80
20911;DHT22;10615;42.702;23.314;2023-05-07T05:34:43;30.90;37.60
20911;DHT22;10615;42.702;23.314;2023-05-07T05:35:44;31.00;37.40
20911;DHT22;10615;42.702;23.314;2023-05-07T05:36:45;31.10;37.10
20911;DHT22;10615;42.702;23.314;2023-05-07T05:37:46;31.00;37.60
20911;DHT22;10615;42.702;23.314;2023-05-07T05:38:48;31.10;37.30
20911;DHT22;10615;42.702;23.314;2023-05-07T05:39:48;31.20;37.10
20911;DHT22;10615;42.702;23.314;2023-05-07T05:40:49;31.30;36.70
20911;DHT22;10615;42.702;23.314;2023-05-07T05:41:50;31.40;36.50
20911;DHT22;10615;42.702;23.314;2023-05-07T05:42:50;31.50;36.50
20911;DHT22;10615;42.702;23.314;2023-05-07T05:43:51;31.70;37.00
20911;DHT22;10615;42.702;23.314;2023-05-07T05:44:52;31.70;36.10
20911;DHT22;10615;42.702;23.314;2023-05-07T05:45:52;31.80;35.90
20911;DHT22;10615;42.702;23.314;2023-05-07T05:46:53;31.90;35.70
20911;DHT22;10615;42.702;23.314;2023-05-07T05:47:56;32.10;35.60
20911;DHT22;10615;42.702;23.314;2023-05-07T05:48:57;32.20;35.40
20911;DHT22;10615;42.702;23.314;2023-05-07T05:49:57;32.30;35.20
20911;DHT22;10615;42.702;23.314;2023-05-07T05:50:58;32.50;35.20
20911;DHT22;10615;42.702;23.314;2023-05-07T05:51:59;32.70;34.80
20911;DHT22;10615;42.702;23.314;2023-05-07T05:52:59;32.90;34.60
20911;DHT22;10615;42.702;23.314;2023-05-07T05:54:00;32.90;34.10
20911;DHT22;10615;42.702;23.314;2023-05-07T05:55:01;32.80;33.90
20911;DHT22;10615;42.702;23.314;2023-05-07T05:56:02;32.90;34.20
20911;DHT22;10615;42.702;23.314;2023-05-07T05:57:02;33.10;34.10
20911;DHT22;10615;42.702;23.314;2023-05-07T05:58:04;33.20;33.90
20911;DHT22;10615;42.702;23.314;2023-05-07T05:59:05;33.40;33.90
20911;DHT22;10615;42.702;23.314;2023-05-07T06:00:06;33.40;33.70
20911;DHT22;10615;42.702;23.314;2023-05-07T06:01:08;33.50;33.60
20911;DHT22;10615;42.702;23.314;2023-05-07T06:02:09;33.70;33.40
20911;DHT22;10615;42.702;23.314;2023-05-07T06:03:09;33.70;33.00
20911;DHT22;10615;42.702;23.314;2023-05-07T06:04:10;33.70;33.00
20911;DHT22;10615;42.702;23.314;2023-05-07T06:05:11;33.80;33.00
20911;DHT22;10615;42.702;23.314;2023-05-07T06:06:12;33.90;33.00
20911;DHT22;10615;42.702;23.314;2023-05-07T06:07:12;34.00;32.70
20911;DHT22;10615;42.702;23.314;2023-05-07T06:08:13;34.00;32.30
20911;DHT22;10615;42.702;23.314;2023-05-07T06:09:14;34.00;32.50
20911;DHT22;10615;42.702;23.314;2023-05-07T06:10:15;34.00;32.60
20911;DHT22;10615;42.702;23.314;2023-05-07T06:11:15;34.20;32.50
20911;DHT22;10615;42.702;23.314;2023-05-07T06:12:16;34.40;32.20
20911;DHT22;10615;42.702;23.314;2023-05-07T06:13:16;34.50;31.90
20911;DHT22;10615;42.702;23.314;2023-05-07T06:14:17;34.50;31.70
20911;DHT22;10615;42.702;23.314;2023-05-07T06:15:18;34.50;31.40
20911;DHT22;10615;42.702;23.314;2023-05-07T06:16:19;34.60;31.40
20911;DHT22;10615;42.702;23.314;2023-05-07T06:17:19;34.70;31.20
20911;DHT22;10615;42.702;23.314;2023-05-07T06:18:20;34.70;31.20
20911;DHT22;10615;42.702;23.314;2023-05-07T06:19:21;34.80;31.20
20911;DHT22;10615;42.702;23.314;2023-05-07T06:20:24;35.00;31.20
20911;DHT22;10615;42.702;23.314;2023-05-07T06:21:25;35.30;31.00
20911;DHT22;10615;42.702;23.314;2023-05-07T06:22:25;35.50;30.40